D/T METAR WX W/DIR W/SPE G/SPE TEMP DEWP
16/01/19 03:20 EGLC 160320Z AUTO 23014KT 9999 BKN014 BKN038 09/06 Q1010 SW (230°) 16.1mph 9°C 6°C
16/01/19 02:50 EGLC 160250Z AUTO 23010KT 9999 BKN012 09/07 Q1011 SW (230°) 11.5mph 9°C 7°C
16/01/19 02:20 EGLC 160220Z AUTO 22012KT 9999 SCT013 BKN022 BKN030 09/07 Q1011 SW (220°) 13.8mph 9°C 7°C
16/01/19 01:50 EGLC 160150Z AUTO 23013KT 9999 SCT015 SCT034 09/06 Q1011 SW (230°) 15.0mph 9°C 6°C
16/01/19 01:20 EGLC 160120Z AUTO 23012KT 200V260 9999 FEW015 BKN035 09/06 Q1012 SW (230°) 13.8mph 9°C 6°C
16/01/19 00:50 EGLC 160050Z AUTO 23011KT 9999 FEW016 BKN035 09/06 Q1012 SW (230°) 12.7mph 9°C 6°C
16/01/19 00:20 EGLC 160020Z AUTO 23011KT 190V260 9999 FEW017 BKN035 09/06 Q1013 SW (230°) 12.7mph 9°C 6°C
15/01/19 23:50 EGLC 152350Z AUTO 23012KT 9999 BKN031 09/06 Q1013 SW (230°) 13.8mph 9°C 6°C
15/01/19 23:20 EGLC 152320Z AUTO 24009KT 200V260 9999 OVC030 09/05 Q1014 WSW (240°) 10.4mph 9°C 5°C
15/01/19 22:50 EGLC 152250Z AUTO 23010KT 9999 OVC028 09/05 Q1014 SW (230°) 11.5mph 9°C 5°C
15/01/19 22:20 EGLC 152220Z AUTO 24010KT 9999 BKN026 09/05 Q1014 WSW (240°) 11.5mph 9°C 5°C
15/01/19 21:20 EGLC 152120Z AUTO 23011KT 9999 BKN031 10/05 Q1015 SW (230°) 12.7mph 10°C 5°C
15/01/19 20:50 EGLC 152050Z AUTO 23013KT 9999 OVC031 10/04 Q1015 SW (230°) 15.0mph 10°C 4°C
15/01/19 20:20 EGLC 152020Z AUTO 24011KT 9999 OVC031 10/05 Q1015 WSW (240°) 12.7mph 10°C 5°C
15/01/19 19:50 EGLC 151950Z AUTO 24009KT 200V280 9999 OVC029 10/05 Q1016 WSW (240°) 10.4mph 10°C 5°C
15/01/19 19:20 EGLC 151920Z AUTO 23009KT 9999 OVC030 10/05 Q1016 SW (230°) 10.4mph 10°C 5°C
15/01/19 18:50 EGLC 151850Z AUTO 23009KT 9999 OVC034 10/05 Q1016 SW (230°) 10.4mph 10°C 5°C
15/01/19 18:20 EGLC 151820Z AUTO 23008KT 200V260 9999 FEW026 OVC030 10/05 Q1016 SW (230°) 9.2mph 10°C 5°C
15/01/19 17:50 EGLC 151750Z AUTO 24008KT 9999 SCT023 BKN029 10/05 Q1016 WSW (240°) 9.2mph 10°C 5°C
15/01/19 17:20 EGLC 151720Z AUTO 24008KT 9999 SCT022 BKN031 10/06 Q1016 WSW (240°) 9.2mph 10°C 6°C
15/01/19 16:50 EGLC 151650Z AUTO 24008KT 9999 BKN017 BKN022 10/06 Q1017 WSW (240°) 9.2mph 10°C 6°C
15/01/19 16:20 EGLC 151620Z AUTO 24008KT 9999 -RA BKN016 OVC036 09/06 Q1017 -RA WSW (240°) 9.2mph 9°C 6°C
15/01/19 15:50 EGLC 151550Z AUTO 24007KT 9999 SCT016 BKN021 OVC034 10/06 Q1017 WSW (240°) 8.1mph 10°C 6°C
15/01/19 15:20 EGLC 151520Z AUTO 24010KT 210V270 9999 -RA BKN018 OVC027 10/06 Q1018 -RA WSW (240°) 11.5mph 10°C 6°C
15/01/19 14:50 EGLC 151450Z AUTO 25010KT 9999 BKN018 BKN023 OVC029 10/06 Q1018 WSW (250°) 11.5mph 10°C 6°C
15/01/19 14:20 EGLC 151420Z AUTO 25012KT 9999 SCT018 BKN023 OVC027 10/06 Q1018 WSW (250°) 13.8mph 10°C 6°C
15/01/19 13:50 EGLC 151350Z AUTO 25010KT 9999 BKN018 OVC025 10/06 Q1018 WSW (250°) 11.5mph 10°C 6°C
15/01/19 13:20 EGLC 151320Z AUTO 25013KT 9999 BKN018 BKN022 OVC037 10/06 Q1018 WSW (250°) 15.0mph 10°C 6°C
15/01/19 12:50 EGLC 151250Z AUTO 25011KT 9999 BKN017 OVC033 09/05 Q1019 WSW (250°) 12.7mph 9°C 5°C
15/01/19 12:20 EGLC 151220Z AUTO 24011KT 9999 FEW017 OVC036 09/05 Q1019 WSW (240°) 12.7mph 9°C 5°C
15/01/19 11:50 EGLC 151150Z AUTO 24012KT 9999 OVC037 09/05 Q1019 WSW (240°) 13.8mph 9°C 5°C
15/01/19 11:20 EGLC 151120Z AUTO 24011KT 9999 BKN036 09/05 Q1020 WSW (240°) 12.7mph 9°C 5°C
15/01/19 10:50 EGLC 151050Z AUTO 24011KT 9999 OVC035 09/04 Q1020 WSW (240°) 12.7mph 9°C 4°C
15/01/19 10:20 EGLC 151020Z AUTO 24010KT 9999 OVC034 08/04 Q1020 WSW (240°) 11.5mph 8°C 4°C
15/01/19 09:50 EGLC 150950Z AUTO 24011KT 9999 OVC033 08/04 Q1020 WSW (240°) 12.7mph 8°C 4°C
15/01/19 09:20 EGLC 150920Z AUTO 24009KT 9999 OVC032 08/04 Q1020 WSW (240°) 10.4mph 8°C 4°C
15/01/19 08:50 EGLC 150850Z AUTO 22009KT 9999 BKN027 OVC032 07/03 Q1020 SW (220°) 10.4mph 7°C 3°C
15/01/19 08:20 EGLC 150820Z AUTO 25007KT 9999 BKN027 OVC034 06/03 Q1021 WSW (250°) 8.1mph 6°C 3°C
15/01/19 07:50 EGLC 150750Z AUTO 24007KT 9999 BKN028 OVC032 06/03 Q1021 WSW (240°) 8.1mph 6°C 3°C
15/01/19 07:20 EGLC 150720Z AUTO 24009KT 9999 BKN028 OVC033 06/03 Q1021 WSW (240°) 10.4mph 6°C 3°C
15/01/19 06:50 EGLC 150650Z AUTO 25010KT 9999 OVC030 05/02 Q1021 WSW (250°) 11.5mph 5°C 2°C
15/01/19 05:50 EGLC 150550Z AUTO 25009KT 9999 FEW033 SCT043 05/02 Q1021 WSW (250°) 10.4mph 5°C 2°C
15/01/19 05:20 EGLC 150520Z AUTO 24010KT 9999 BKN037 05/02 Q1021 WSW (240°) 11.5mph 5°C 2°C
15/01/19 04:50 EGLC 150450Z AUTO 24009KT 9999 BKN034 05/02 Q1021 WSW (240°) 10.4mph 5°C 2°C
15/01/19 04:20 EGLC 150420Z AUTO 23008KT 9999 NCD 04/02 Q1021 SW (230°) 9.2mph 4°C 2°C
15/01/19 03:50 EGLC 150350Z AUTO 23007KT 9999 NCD 04/02 Q1022 SW (230°) 8.1mph 4°C 2°C
15/01/19 03:20 EGLC 150320Z AUTO 23008KT 9999 NCD 04/01 Q1022 SW (230°) 9.2mph 4°C 1°C
15/01/19 02:50 EGLC 150250Z AUTO 22007KT 9999 NCD 05/01 Q1022 SW (220°) 8.1mph 5°C 1°C
15/01/19 02:20 EGLC 150220Z AUTO 22007KT 9999 NCD 05/01 Q1022 SW (220°) 8.1mph 5°C 1°C
15/01/19 01:50 EGLC 150150Z AUTO 23007KT 9999 NCD 05/02 Q1022 SW (230°) 8.1mph 5°C 2°C
15/01/19 01:20 EGLC 150120Z AUTO 22005KT 9999 NCD 05/02 Q1023 SW (220°) 5.8mph 5°C 2°C
15/01/19 00:50 EGLC 150050Z AUTO 23007KT 9999 NCD 06/02 Q1023 SW (230°) 8.1mph 6°C 2°C
15/01/19 00:20 EGLC 150020Z AUTO 23007KT 9999 NCD 06/02 Q1023 SW (230°) 8.1mph 6°C 2°C
14/01/19 23:50 EGLC 142350Z AUTO 24007KT 9999 NCD 07/02 Q1023 WSW (240°) 8.1mph 7°C 2°C
14/01/19 23:20 EGLC 142320Z AUTO 25007KT 9999 NCD 07/02 Q1023 WSW (250°) 8.1mph 7°C 2°C
14/01/19 22:20 EGLC 142220Z AUTO 27008KT 9999 BKN046 08/02 Q1023 W (270°) 9.2mph 8°C 2°C
14/01/19 21:50 EGLC 142150Z AUTO 28010KT 250V310 9999 BKN047 08/02 Q1023 W (280°) 11.5mph 8°C 2°C
14/01/19 21:20 EGLC 142120Z AUTO 27009KT 9999 SCT048 08/02 Q1022 W (270°) 10.4mph 8°C 2°C
14/01/19 20:50 EGLC 142050Z AUTO 27010KT 9999 NCD 09/02 Q1022 W (270°) 11.5mph 9°C 2°C
14/01/19 20:20 EGLC 142020Z AUTO 27011KT 9999 NCD 09/02 Q1023 W (270°) 12.7mph 9°C 2°C
14/01/19 19:50 EGLC 141950Z AUTO 28009KT 9999 NCD 09/02 Q1023 W (280°) 10.4mph 9°C 2°C
14/01/19 19:20 EGLC 141920Z AUTO 28008KT 9999 NCD 09/03 Q1023 W (280°) 9.2mph 9°C 3°C
14/01/19 18:50 EGLC 141850Z AUTO 28010KT 9999 NCD 09/03 Q1023 W (280°) 11.5mph 9°C 3°C
14/01/19 18:20 EGLC 141820Z AUTO 28009KT 9999 NCD 09/03 Q1023 W (280°) 10.4mph 9°C 3°C
14/01/19 17:20 EGLC 141720Z AUTO 28008KT 9999 NCD 09/03 Q1022 W (280°) 9.2mph 9°C 3°C
14/01/19 16:50 EGLC 141650Z AUTO 28007KT 9999 NCD 09/03 Q1022 W (280°) 8.1mph 9°C 3°C
14/01/19 15:50 EGLC 141550Z AUTO 29008KT 9999 NCD 09/03 Q1022 WNW (290°) 9.2mph 9°C 3°C
14/01/19 15:20 EGLC 141520Z AUTO 30011KT 9999 FEW030 SCT048 09/03 Q1022 WNW (300°) 12.7mph 9°C 3°C
14/01/19 14:50 EGLC 141450Z AUTO 29010KT 9999 FEW034 OVC046 09/03 Q1021 WNW (290°) 11.5mph 9°C 3°C
14/01/19 14:20 EGLC 141420Z AUTO 28008KT 9999 SCT029 BKN034 OVC042 09/03 Q1021 W (280°) 9.2mph 9°C 3°C
14/01/19 13:50 EGLC 141350Z AUTO 28009KT 9999 -RA SCT028 SCT036 BKN042 09/04 Q1021 -RA W (280°) 10.4mph 9°C 4°C
14/01/19 13:20 EGLC 141320Z AUTO 29008KT 9999 FEW025 OVC033 09/04 Q1021 WNW (290°) 9.2mph 9°C 4°C
14/01/19 12:20 EGLC 141220Z AUTO 30010KT 9999 BKN026 OVC042 09/03 Q1021 WNW (300°) 11.5mph 9°C 3°C
14/01/19 11:50 EGLC 141150Z AUTO 30012KT 9999 FEW030 OVC039 09/03 Q1021 WNW (300°) 13.8mph 9°C 3°C
14/01/19 11:20 EGLC 141120Z AUTO 30014KT 280V340 9999 SCT027 OVC038 09/03 Q1021 WNW (300°) 16.1mph 9°C 3°C
14/01/19 10:50 EGLC 141050Z AUTO 30011KT 260V330 9999 FEW027 BKN034 09/03 Q1021 WNW (300°) 12.7mph 9°C 3°C
14/01/19 10:20 EGLC 141020Z AUTO 30011KT 9999 FEW042 09/03 Q1020 WNW (300°) 12.7mph 9°C 3°C
14/01/19 09:50 EGLC 140950Z AUTO 30012KT 9999 NCD 09/04 Q1020 WNW (300°) 13.8mph 9°C 4°C
14/01/19 09:20 EGLC 140920Z AUTO 30011KT 9999 NCD 08/03 Q1020 WNW (300°) 12.7mph 8°C 3°C
14/01/19 08:50 EGLC 140850Z AUTO 29009KT 9999 NCD 08/03 Q1019 WNW (290°) 10.4mph 8°C 3°C
14/01/19 08:20 EGLC 140820Z AUTO 30009KT 9999 NCD 08/03 Q1019 WNW (300°) 10.4mph 8°C 3°C
14/01/19 07:50 EGLC 140750Z AUTO 29008KT 9999 NCD 08/03 Q1019 WNW (290°) 9.2mph 8°C 3°C
14/01/19 07:20 EGLC 140720Z AUTO 29009KT 9999 NCD 08/03 Q1018 WNW (290°) 10.4mph 8°C 3°C
14/01/19 06:50 EGLC 140650Z AUTO 28008KT 9999 NCD 08/03 Q1018 W (280°) 9.2mph 8°C 3°C
14/01/19 06:20 EGLC 140620Z AUTO 29010KT 9999 NCD 08/03 Q1018 WNW (290°) 11.5mph 8°C 3°C
14/01/19 05:50 EGLC 140550Z AUTO 29010KT 9999 SCT030 08/03 Q1018 WNW (290°) 11.5mph 8°C 3°C
14/01/19 05:20 EGLC 140520Z AUTO 28010KT 240V300 9999 BKN031 08/03 Q1017 W (280°) 11.5mph 8°C 3°C
14/01/19 04:50 EGLC 140450Z AUTO 29011KT 250V330 9999 SCT031 09/03 Q1017 WNW (290°) 12.7mph 9°C 3°C
14/01/19 04:20 EGLC 140420Z AUTO 29011KT 260V320 9999 SCT032 09/03 Q1016 WNW (290°) 12.7mph 9°C 3°C
14/01/19 03:50 EGLC 140350Z AUTO 29012KT 9999 SCT032 09/03 Q1016 WNW (290°) 13.8mph 9°C 3°C
14/01/19 03:20 EGLC 140320Z AUTO 30013KT 9999 BKN033 09/03 Q1016 WNW (300°) 15.0mph 9°C 3°C
14/01/19 02:50 EGLC 140250Z AUTO 29012KT 9999 BKN033 09/03 Q1016 WNW (290°) 13.8mph 9°C 3°C
14/01/19 01:50 EGLC 140150Z AUTO 29013KT 9999 NCD 09/03 Q1015 WNW (290°) 15.0mph 9°C 3°C
14/01/19 01:20 EGLC 140120Z AUTO 30016KT 9999 FEW037 09/02 Q1015 WNW (300°) 18.4mph 9°C 2°C
14/01/19 00:50 EGLC 140050Z AUTO 29015KT 9999 FEW039 10/02 Q1014 WNW (290°) 17.3mph 10°C 2°C
14/01/19 00:20 EGLC 140020Z AUTO 29016KT 9999 FEW040 10/02 Q1014 WNW (290°) 18.4mph 10°C 2°C
13/01/19 23:50 EGLC 132350Z AUTO 29015KT 9999 FEW038 10/02 Q1014 WNW (290°) 17.3mph 10°C 2°C
13/01/19 23:20 EGLC 132320Z AUTO 29013KT 9999 SCT037 BKN045 10/03 Q1014 WNW (290°) 15.0mph 10°C 3°C
13/01/19 22:20 EGLC 132220Z AUTO 29014KT 9999 NCD 10/02 Q1014 WNW (290°) 16.1mph 10°C 2°C
13/01/19 21:50 EGLC 132150Z AUTO 30015KT 9999 NCD 10/02 Q1013 WNW (300°) 17.3mph 10°C 2°C
13/01/19 21:20 EGLC 132120Z AUTO 30016KT 9999 NCD 10/02 Q1013 WNW (300°) 18.4mph 10°C 2°C
13/01/19 20:50 EGLC 132050Z AUTO 30018G28KT 9999 BKN048 11/02 Q1013 WNW (300°) 20.7mph 32.2mph 11°C 2°C
13/01/19 20:20 EGLC 132020Z AUTO 30018G30KT 9999 SCT034 BKN043 BKN049 12/04 Q1012 WNW (300°) 20.7mph 34.5mph 12°C 4°C
13/01/19 19:50 EGLC 131950Z AUTO 30013KT 9999 BKN030 12/06 Q1011 WNW (300°) 15.0mph 12°C 6°C
13/01/19 19:20 EGLC 131920Z AUTO 29011KT 9999 SCT031 BKN043 12/06 Q1011 WNW (290°) 12.7mph 12°C 6°C
13/01/19 18:50 EGLC 131850Z AUTO 27014KT 9999 FEW033 SCT042 12/07 Q1011 W (270°) 16.1mph 12°C 7°C
13/01/19 17:50 EGLC 131750Z AUTO 27017KT 9999 NCD 11/07 Q1010 W (270°) 19.6mph 11°C 7°C
13/01/19 17:20 EGLC 131720Z AUTO 27017G27KT 9999 FEW022 SCT043 11/07 Q1010 W (270°) 19.6mph 31.1mph 11°C 7°C
13/01/19 16:50 EGLC 131650Z AUTO 27018KT 9999 SCT021 BKN030 12/07 Q1010 W (270°) 20.7mph 12°C 7°C
13/01/19 16:20 EGLC 131620Z AUTO 26014KT 9999 SCT020 BKN027 BKN033 12/08 Q1010 W (260°) 16.1mph 12°C 8°C
13/01/19 15:50 EGLC 131550Z AUTO 26017KT 9999 BKN018 BKN028 OVC043 12/08 Q1011 W (260°) 19.6mph 12°C 8°C
13/01/19 15:20 EGLC 131520Z AUTO 27017KT 9999 BKN019 BKN028 OVC045 12/08 Q1010 W (270°) 19.6mph 12°C 8°C
13/01/19 14:50 EGLC 131450Z AUTO 27018KT 9999 BKN020 OVC028 12/08 Q1011 W (270°) 20.7mph 12°C 8°C
13/01/19 14:20 EGLC 131420Z AUTO 27018G29KT 9999 BKN020 12/08 Q1010 W (270°) 20.7mph 33.4mph 12°C 8°C
13/01/19 13:50 EGLC 131350Z AUTO 26018G28KT 9999 BKN021 12/08 Q1010 W (260°) 20.7mph 32.2mph 12°C 8°C
13/01/19 13:20 EGLC 131320Z AUTO 27019KT 9999 FEW023 12/07 Q1011 W (270°) 21.9mph 12°C 7°C
13/01/19 12:50 EGLC 131250Z AUTO 27019KT 9999 SCT023 12/07 Q1011 W (270°) 21.9mph 12°C 7°C
13/01/19 11:50 EGLC 131150Z AUTO 26019KT 9999 FEW025 12/06 Q1012 W (260°) 21.9mph 12°C 6°C
13/01/19 11:20 EGLC 131120Z AUTO 27019G29KT 9999 NCD 11/06 Q1012 W (270°) 21.9mph 33.4mph 11°C 6°C
13/01/19 10:50 EGLC 131050Z AUTO 27020KT 9999 NCD 11/06 Q1013 W (270°) 23.0mph 11°C 6°C
13/01/19 10:20 EGLC 131020Z AUTO 26017G29KT 9999 NCD 11/06 Q1013 W (260°) 19.6mph 33.4mph 11°C 6°C
13/01/19 09:50 EGLC 130950Z AUTO 26016KT 9999 NCD 11/06 Q1013 W (260°) 18.4mph 11°C 6°C
13/01/19 09:20 EGLC 130920Z AUTO 27017KT 9999 -RA NCD 11/06 Q1014 -RA W (270°) 19.6mph 11°C 6°C
13/01/19 08:50 EGLC 130850Z AUTO 27017KT 9999 NCD 11/07 Q1014 W (270°) 19.6mph 11°C 7°C
13/01/19 08:20 EGLC 130820Z AUTO 26012KT 9999 NCD 11/07 Q1014 W (260°) 13.8mph 11°C 7°C
13/01/19 07:50 EGLC 130750Z AUTO 26014KT 9999 NCD 11/07 Q1014 W (260°) 16.1mph 11°C 7°C
13/01/19 07:20 EGLC 130720Z AUTO 26015KT 9999 FEW020 11/08 Q1015 W (260°) 17.3mph 11°C 8°C
13/01/19 06:50 EGLC 130650Z AUTO 26013KT 9999 SCT018 11/08 Q1014 W (260°) 15.0mph 11°C 8°C
13/01/19 06:20 EGLC 130620Z AUTO 25014KT 9999 SCT016 BKN021 11/08 Q1014 WSW (250°) 16.1mph 11°C 8°C
13/01/19 05:50 EGLC 130550Z AUTO 25015KT 9999 SCT017 BKN022 11/07 Q1015 WSW (250°) 17.3mph 11°C 7°C
13/01/19 05:20 EGLC 130520Z AUTO 25012KT 9999 BKN018 11/07 Q1015 WSW (250°) 13.8mph 11°C 7°C
13/01/19 04:50 EGLC 130450Z AUTO 25011KT 9999 BKN021 11/07 Q1015 WSW (250°) 12.7mph 11°C 7°C
13/01/19 04:20 EGLC 130420Z AUTO 25011KT 9999 BKN020 OVC025 11/07 Q1016 WSW (250°) 12.7mph 11°C 7°C
13/01/19 03:50 EGLC 130350Z AUTO 26012KT 9999 BKN022 BKN027 11/07 Q1016 W (260°) 13.8mph 11°C 7°C
13/01/19 03:20 EGLC 130320Z AUTO 27014KT 9999 BKN022 11/07 Q1016 W (270°) 16.1mph 11°C 7°C
13/01/19 02:50 EGLC 130250Z AUTO 27013KT 9999 BKN022 BKN028 11/07 Q1016 W (270°) 15.0mph 11°C 7°C
13/01/19 02:20 EGLC 130220Z AUTO 26010KT 9999 BKN023 11/07 Q1017 W (260°) 11.5mph 11°C 7°C
13/01/19 01:50 EGLC 130150Z AUTO 27012KT 9999 OVC023 11/07 Q1017 W (270°) 13.8mph 11°C 7°C
13/01/19 01:20 EGLC 130120Z AUTO 26009KT 9999 BKN025 OVC029 11/07 Q1017 W (260°) 10.4mph 11°C 7°C
13/01/19 00:50 EGLC 130050Z AUTO 27010KT 240V300 9999 OVC027 11/07 Q1018 W (270°) 11.5mph 11°C 7°C
13/01/19 00:20 EGLC 130020Z AUTO 27009KT 9999 OVC026 11/07 Q1018 W (270°) 10.4mph 11°C 7°C
12/01/19 23:50 EGLC 122350Z AUTO 26011KT 9999 BKN026 11/07 Q1018 W (260°) 12.7mph 11°C 7°C
12/01/19 23:20 EGLC 122320Z AUTO 26011KT 9999 OVC025 11/07 Q1018 W (260°) 12.7mph 11°C 7°C
12/01/19 22:50 EGLC 122250Z AUTO 25010KT 9999 OVC024 11/07 Q1018 WSW (250°) 11.5mph 11°C 7°C